Portada
METAR-TAF:

METAR-TAF

Aeroports :

Rarotonga, Illes Cook

latitud: 21-12S, longitud: 159-49W, altitud: 7 m

Observació

L'informe es va fer fa 15 minuts, a les 19:30 UTC
Vent 6 kt del Est/Sud-Est, variant entre Est/Nord-Est i Sud
Temperatura 23°C
Humitat 50%
Pressió 1020 hPa
Visibilitat 10 km o més

METAR: NCRG 111930Z AUTO 11006KT 070V170 9999 NCD 23/12 Q1020

Hora: 09:45 (19:45 UTC)

Pronòstic

L'informe es va fer fa 2 hores i 33 minuts, a les 17:12 UTC
Pronòstic vàlid del 11 a les 18 UTC al 12 a les 18 UTC
Vent 6 kt del Est/Sud-Est
Visibilitat 10 km o més
Escasses núvols a una alçada de 4000 ft
Núvols disperses a una alçada de 5500 ft
Probabilitat 40% :
Temporalment
l' 11 a les 18 UTC al 12 a les 02 UTC
Vent 15 kt del Est/Sud-Est amb ràfegues de 25 kt

TAF: NCRG 111712Z 1118/1218 12006KT 9999 FEW040 SCT055 PROB40 TEMPO 1118/1202 12015G25KT

Observacions i pronòstics meteorològics de més de 4000 aeroports (METAR i TAF).

Les estacions disponibles són els punts grocs i vermells al mapa.

Posi el ratolí al punt desitjat per veure el nom de l'estació.

Feu clic per veure les observacions i els pronòstics meteorològics.

Per canviar el mapa: feu clic els botons verds amb una creu de color negre per apropar; al botó verd amb un guió per allunyar la imatge; o en les fletxes verdes per a mapes adjacents.


METAR-TAF: